Astra — PB4187 — position and weather

sailwx.info

Track history (hours):
 
Tides and Currents Weather Stations Pressure Air Temp Water Temp Dewpoint Dewpoint Depression Visibility Wind Speed Wind Dir Waves Ship Positions

Astra

Last reported at 2017-Dec-10 21:42 UTC. Time now 2017-Dec-13 13:18 UTC.
Position N 50°49' E 007°02'.

Length 110 m; draft 2.9 m.

Type: Tanker. MMSI: 244650752.

Date/timePositionNaut miles runAvg speedWind from/ knotsBaromVisibWave heightAir tempDewpointWater temp
2017-Dec-10 21:42N 50°49' E 007°02'2 4.6
2017-Dec-10 21:19N 50°50' E 006°59'2 3.9
2017-Dec-10 20:55N 50°51' E 007°00'2 4.7
2017-Dec-10 20:27N 50°53' E 007°03'2 3.2
2017-Dec-10 19:57N 50°54' E 007°01'2 4.0
2017-Dec-10 19:30N 50°55' E 006°59'2 4.9
2017-Dec-10 19:00N 50°57' E 006°58'10 3.7
2017-Dec-10 16:20N 51°06' E 006°53'2 4.8
2017-Dec-10 15:57N 51°08' E 006°51'2 3.1
2017-Dec-10 15:22N 51°09' E 006°50'1 4.2
2017-Dec-10 15:00N 51°09' E 006°48'2 4.6
2017-Dec-10 14:31N 51°11' E 006°47'2 4.5
2017-Dec-10 14:01N 51°11' E 006°44'2 4.6
2017-Dec-10 13:30N 51°14' E 006°44'2 3.1
2017-Dec-10 13:01N 51°14' E 006°46'2 4.4
2017-Dec-10 12:31N 51°15' E 006°44'2 3.6
2017-Dec-10 12:00N 51°17' E 006°43'2 4.8
2017-Dec-10 11:30N 51°19' E 006°44'3 4.7
2017-Dec-10 10:58N 51°21' E 006°41'1 2.9
2017-Dec-10 10:30N 51°22' E 006°40'2 4.7
2017-Dec-10 10:00N 51°23' E 006°44'2 4.5
2017-Dec-10 09:31N 51°25' E 006°44'2 4.4
2017-Dec-10 09:00N 51°27' E 006°43'2 4.5
2017-Dec-10 08:31N 51°29' E 006°41'2 4.6
2017-Dec-10 08:00N 51°30' E 006°43'3 5.1
2017-Dec-10 07:31N 51°32' E 006°41'2 4.8
2017-Dec-10 07:01N 51°35' E 006°41'2 4.8
2017-Dec-10 06:30N 51°34' E 006°37'2 5.0
2017-Dec-10 06:00N 51°36' E 006°36'2 4.9
2017-Dec-10 05:30N 51°39' E 006°36'2 4.6
2017-Dec-10 05:01N 51°39' E 006°33'14 4.6
2017-Dec-10 01:53N 51°49' E 006°16'2 5.5
2017-Dec-10 01:31N 51°50' E 006°13'3 5.1
2017-Dec-10 01:01N 51°51' E 006°09'3 5.6
2017-Dec-10 00:31N 51°52' E 006°04'3 5.9
2017-Dec-10 00:00N 51°53' E 005°60'2 4.4
2017-Dec-09 23:31N 51°52' E 005°57'3 4.8
2017-Dec-09 22:54N 51°51' E 005°52'3 5.8
2017-Dec-09 22:27N 51°52' E 005°49'6 6.1
2017-Dec-09 21:29N 51°54' E 005°39'11 5.0
2017-Dec-09 19:13N 51°57' E 005°22'2 7.6
2017-Dec-09 19:01N 51°58' E 005°20'0 0.8
2017-Dec-09 18:31N 51°58' E 005°19'4 7.0
2017-Dec-09 17:58N 51°60' E 005°14'4 7.6
2017-Dec-09 17:30N 52°01' E 005°08'4 7.7
2017-Dec-09 17:01N 52°04' E 005°05'4 7.2
2017-Dec-09 16:30N 52°08' E 005°03'4 6.8
2017-Dec-09 15:59N 52°11' E 004°60'4 7.7
2017-Dec-09 15:30N 52°14' E 005°01'4 7.6
2017-Dec-09 14:59N 52°18' E 005°01'4 7.3
2017-Dec-09 14:30N 52°21' E 004°58'3 6.3
2017-Dec-09 14:01N 52°23' E 004°54'4 7.1
2017-Dec-09 13:31N 52°25' E 004°49'1 2.9
2017-Dec-09 13:00N 52°25' E 004°47'0 0.1
2017-Dec-09 12:30N 52°25' E 004°47'0 0.0
2017-Dec-09 12:00N 52°25' E 004°47'0 0.0
2017-Dec-09 11:30N 52°25' E 004°47'0 0.0
2017-Dec-09 11:00N 52°25' E 004°47'0 0.0
2017-Dec-09 10:30N 52°25' E 004°47'0 0.0
2017-Dec-09 10:00N 52°25' E 004°47'0 0.0
2017-Dec-09 09:30N 52°25' E 004°47'0 0.0
2017-Dec-09 09:00N 52°25' E 004°47'0 0.0
2017-Dec-09 08:30N 52°25' E 004°47'0 0.0
2017-Dec-09 08:00N 52°25' E 004°47'0 0.0
2017-Dec-09 07:30N 52°25' E 004°47'0 0.0
2017-Dec-09 07:00N 52°25' E 004°47'0 0.0
2017-Dec-09 06:30N 52°25' E 004°47'0 0.0
2017-Dec-09 06:00N 52°25' E 004°47'0 0.0
2017-Dec-09 05:30N 52°25' E 004°47'0 0.0
2017-Dec-09 05:00N 52°25' E 004°47'0 0.0
2017-Dec-09 04:30N 52°25' E 004°47'0 0.0
2017-Dec-09 04:00N 52°25' E 004°47'0 0.0
2017-Dec-09 03:30N 52°25' E 004°47'0 0.0
2017-Dec-09 03:00N 52°25' E 004°47'0 0.0
2017-Dec-09 02:31N 52°25' E 004°47'0 0.0
2017-Dec-09 02:00N 52°25' E 004°47'0 0.0
2017-Dec-09 01:30N 52°25' E 004°47'0 0.0
2017-Dec-09 01:00N 52°25' E 004°47'0 0.1
2017-Dec-09 00:30N 52°25' E 004°47'2 4.4
2017-Dec-09 00:00N 52°24' E 004°51'0 0.3
2017-Dec-08 23:30N 52°24' E 004°51'0 0.0
2017-Dec-08 23:00N 52°24' E 004°51'0 0.0
2017-Dec-08 22:30N 52°24' E 004°51'0 0.0
2017-Dec-08 22:00N 52°24' E 004°51'0 0.0
2017-Dec-08 21:30N 52°24' E 004°51'0 0.0
2017-Dec-08 21:00N 52°24' E 004°51'0 0.0
2017-Dec-08 20:30N 52°24' E 004°51'0 0.0
2017-Dec-08 20:00N 52°24' E 004°51'0 0.0
2017-Dec-08 19:30N 52°24' E 004°51'0 0.0
2017-Dec-08 19:00N 52°24' E 004°51'0 0.0
2017-Dec-08 18:30N 52°24' E 004°51'0 0.0
2017-Dec-08 18:00N 52°24' E 004°51'0 0.0
2017-Dec-08 17:30N 52°24' E 004°51'0 0.0
2017-Dec-08 17:00N 52°24' E 004°51'0 0.0
2017-Dec-08 16:30N 52°24' E 004°51'0 0.0
2017-Dec-08 16:00N 52°24' E 004°51'0 0.0
2017-Dec-08 15:30N 52°24' E 004°51'0 0.0
2017-Dec-08 15:00N 52°24' E 004°51'0 0.0
2017-Dec-08 14:30N 52°24' E 004°51'0 0.0
2017-Dec-08 14:00N 52°24' E 004°51'0 0.0
2017-Dec-08 13:30N 52°24' E 004°51'0 0.0
2017-Dec-08 13:00N 52°24' E 004°51'0 0.0
2017-Dec-08 12:30N 52°24' E 004°51'0 0.0
2017-Dec-08 12:00N 52°24' E 004°51'0 0.0
2017-Dec-08 11:30N 52°24' E 004°51'0 0.0
2017-Dec-08 11:00N 52°24' E 004°51'0 0.0
2017-Dec-08 10:30N 52°24' E 004°51'0 0.0
2017-Dec-08 10:00N 52°24' E 004°51'0 0.0
2017-Dec-08 09:30N 52°24' E 004°51'3 6.1
2017-Dec-08 09:00N 52°26' E 004°46'1 2.6
2017-Dec-08 08:30N 52°25' E 004°48'0 0.0
2017-Dec-08 08:00N 52°25' E 004°48'0 0.0
2017-Dec-08 07:30N 52°25' E 004°48'0 0.0
2017-Dec-08 07:00N 52°25' E 004°48'0 0.0
2017-Dec-08 06:30N 52°25' E 004°48'0 0.0
2017-Dec-08 06:00N 52°25' E 004°48'0 0.0
2017-Dec-08 05:30N 52°25' E 004°48'0 0.0
2017-Dec-08 05:00N 52°25' E 004°48'0 0.0
2017-Dec-08 04:30N 52°25' E 004°48'0 0.0
2017-Dec-08 04:00N 52°25' E 004°48'0 0.0
2017-Dec-08 03:30N 52°25' E 004°48'0 0.0
2017-Dec-08 03:00N 52°25' E 004°48'0 0.0
2017-Dec-08 02:30N 52°25' E 004°48'0 0.0
2017-Dec-08 02:00N 52°25' E 004°48'0 0.0
2017-Dec-08 01:30N 52°25' E 004°48'0 0.0
2017-Dec-08 01:00N 52°25' E 004°48'0 0.0
2017-Dec-08 00:30N 52°25' E 004°48'0 0.0
2017-Dec-08 00:00N 52°25' E 004°48'1 2.1
2017-Dec-07 23:30N 52°24' E 004°46'0 0.0
2017-Dec-07 23:00N 52°24' E 004°46'0 0.0
2017-Dec-07 22:30N 52°24' E 004°46'0 0.0
2017-Dec-07 22:00N 52°24' E 004°46'0 0.0
2017-Dec-07 21:30N 52°24' E 004°46'0 0.0
2017-Dec-07 21:00N 52°24' E 004°46'0 0.0
2017-Dec-07 20:30N 52°24' E 004°46'0 0.0
2017-Dec-07 20:00N 52°24' E 004°46'0 0.0
2017-Dec-07 19:30N 52°24' E 004°46'0 0.0
2017-Dec-07 19:00N 52°24' E 004°46'0 0.0
2017-Dec-07 18:30N 52°24' E 004°46'0 0.0
2017-Dec-07 18:00N 52°24' E 004°46'0 0.0
2017-Dec-07 17:29N 52°24' E 004°46'0 0.0
2017-Dec-07 17:00N 52°24' E 004°46'0 0.0
2017-Dec-07 16:30N 52°24' E 004°46'0 0.0
2017-Dec-07 16:00N 52°24' E 004°46'2 3.6
2017-Dec-07 15:30N 52°25' E 004°48'3 6.8
2017-Dec-07 15:00N 52°24' E 004°53'0 0.2
2017-Dec-07 14:30N 52°24' E 004°53'3 5.6
2017-Dec-07 14:00N 52°23' E 004°57'4 8.2
2017-Dec-07 13:30N 52°19' E 005°01'4 8.2
2017-Dec-07 13:01N 52°15' E 005°01'4 8.4
2017-Dec-07 12:30N 52°11' E 004°60'4 7.8
2017-Dec-07 12:00N 52°08' E 005°03'4 7.8
2017-Dec-07 11:30N 52°04' E 005°05'4 8.3
2017-Dec-07 11:00N 52°01' E 005°09'4 8.3
2017-Dec-07 10:29N 51°59' E 005°16'2 5.0
2017-Dec-07 10:01N 51°58' E 005°19'6 4.2
2017-Dec-07 08:29N 51°54' E 005°27'1 2.2
2017-Dec-07 07:58N 51°53' E 005°29'611.0
2017-Dec-07 07:25N 51°54' E 005°39'410.3
2017-Dec-07 07:00N 51°53' E 005°45'5 8.9
2017-Dec-07 06:27N 51°52' E 005°53'4 8.1
2017-Dec-07 06:00N 51°52' E 005°59'4 8.5
2017-Dec-07 05:30N 51°51' E 006°06'510.7
2017-Dec-07 05:00N 51°50' E 006°14'12 9.2
2017-Dec-07 03:44N 51°42' E 006°28'310.1
2017-Dec-07 03:29N 51°40' E 006°30'4 7.8
2017-Dec-07 03:00N 51°38' E 006°36'4 7.2
2017-Dec-07 02:29N 51°35' E 006°39'4 9.0
2017-Dec-07 02:00N 51°31' E 006°43'3 7.0
2017-Dec-07 01:30N 51°28' E 006°43'5 9.8
2017-Dec-07 01:01N 51°23' E 006°44'4 6.0
2017-Dec-07 00:23N 51°19' E 006°44'4 9.7
2017-Dec-07 00:00N 51°15' E 006°44'3 5.4
2017-Dec-06 23:30N 51°13' E 006°44'4 8.2
2017-Dec-06 23:00N 51°09' E 006°47'11 7.7
2017-Dec-06 21:35N 51°01' E 006°58'3 8.6
2017-Dec-06 21:13N 50°57' E 006°59'210.4
2017-Dec-06 21:01N 50°55' E 006°58'  
2017-Dec-03 20:59N 49°19' E 008°27'3 5.3
2017-Dec-03 20:22N 49°22' E 008°30'2 5.6
2017-Dec-03 20:00N 49°24' E 008°30'3 5.5
2017-Dec-03 19:30N 49°26' E 008°30'3 5.0
2017-Dec-03 19:00N 49°27' E 008°26'2 4.2
2017-Dec-03 18:30N 49°29' E 008°27'3 5.5
2017-Dec-03 18:00N 49°32' E 008°26'3 5.9
2017-Dec-03 17:30N 49°35' E 008°25'84 4.1
2017-Dec-02 21:04N 50°43' E 007°08'0 5.6
2017-Dec-02 21:00N 50°43' E 007°08'3 5.1
2017-Dec-02 20:30N 50°46' E 007°06'3 5.1
2017-Dec-02 20:00N 50°47' E 007°02'3 4.9
2017-Dec-02 19:29N 50°49' E 007°01'2 3.8
2017-Dec-02 19:00N 50°51' E 006°59'3 4.9
2017-Dec-02 18:27N 50°52' E 007°02'2 3.0
2017-Dec-02 17:56N 50°54' E 007°01'2 4.6
2017-Dec-02 17:30N 50°55' E 006°58'3 5.0
2017-Dec-02 16:58N 50°58' E 006°59'3 4.7
2017-Dec-02 16:24N 51°00' E 006°58'9 4.1
2017-Dec-02 14:08N 51°08' E 006°51'1 5.2
2017-Dec-02 13:58N 51°09' E 006°51'1 2.8
2017-Dec-02 13:28N 51°09' E 006°49'2 3.3
2017-Dec-02 13:00N 51°10' E 006°48'2 4.4
2017-Dec-02 12:30N 51°11' E 006°45'2 4.9
2017-Dec-02 12:00N 51°13' E 006°43'2 3.5
2017-Dec-02 11:31N 51°14' E 006°46'2 4.2
2017-Dec-02 11:00N 51°15' E 006°44'2 3.9
2017-Dec-02 10:29N 51°17' E 006°43'2 5.0
2017-Dec-02 10:01N 51°19' E 006°44'3 5.1
2017-Dec-02 09:30N 51°21' E 006°40'1 2.9
2017-Dec-02 09:00N 51°22' E 006°41'3 5.0
2017-Dec-02 08:30N 51°23' E 006°44'2 4.8
2017-Dec-02 08:00N 51°26' E 006°43'2 4.7
2017-Dec-02 07:30N 51°28' E 006°43'2 3.6
2017-Dec-02 07:00N 51°29' E 006°41'2 3.8
2017-Dec-02 06:30N 51°31' E 006°43'2 4.7
2017-Dec-02 06:00N 51°33' E 006°41'2 3.7
2017-Dec-02 05:30N 51°35' E 006°39'2 3.8
2017-Dec-02 04:59N 51°35' E 006°36'3 5.6
2017-Dec-02 04:30N 51°38' E 006°35'2 3.8
2017-Dec-02 04:00N 51°40' E 006°35'3 5.3
2017-Dec-02 03:30N 51°40' E 006°30'11 4.8
2017-Dec-02 01:16N 51°48' E 006°19'1 5.8
2017-Dec-02 01:00N 51°49' E 006°17'3 5.7
2017-Dec-02 00:30N 51°50' E 006°13'3 5.6
2017-Dec-02 00:00N 51°51' E 006°09'3 5.7
2017-Dec-01 23:31N 51°52' E 006°04'3 5.9
2017-Dec-01 23:00N 51°53' E 005°60'2 4.3
2017-Dec-01 22:30N 51°52' E 005°57'4 5.1
2017-Dec-01 21:41N 51°52' E 005°50'1 6.4
2017-Dec-01 21:28N 51°53' E 005°48'3 6.6
2017-Dec-01 21:00N 51°53' E 005°43'3 6.5
2017-Dec-01 20:30N 51°54' E 005°38'4 6.5
2017-Dec-01 19:52N 51°54' E 005°31'2 6.5
2017-Dec-01 19:30N 51°53' E 005°27'3 6.4
2017-Dec-01 19:00N 51°51' E 005°24'3 6.4
2017-Dec-01 18:30N 51°48' E 005°21'3 5.5
2017-Dec-01 18:00N 51°49' E 005°17'5 6.4
2017-Dec-01 17:12N 51°49' E 005°08'1 6.2
2017-Dec-01 16:58N 51°49' E 005°06'3 6.1
2017-Dec-01 16:29N 51°49' E 005°02'3 7.1
2017-Dec-01 16:00N 51°50' E 004°56'4 7.5
2017-Dec-01 15:30N 51°49' E 004°50'4 7.8
2017-Dec-01 15:00N 51°49' E 004°44'4 7.6
2017-Dec-01 14:30N 51°48' E 004°38'4 8.3
2017-Dec-01 14:00N 51°50' E 004°32'5 9.4
2017-Dec-01 13:30N 51°51' E 004°24'4 8.0
2017-Dec-01 13:00N 51°53' E 004°19'2 4.2
2017-Dec-01 12:30N 51°53' E 004°16'0 0.0
2017-Dec-01 12:00N 51°53' E 004°16'0 0.0
2017-Dec-01 11:30N 51°53' E 004°16'0 0.0
2017-Dec-01 11:00N 51°53' E 004°16'0 0.0
2017-Dec-01 10:30N 51°53' E 004°16'0 0.0
2017-Dec-01 10:00N 51°53' E 004°16'0 0.0
2017-Dec-01 09:29N 51°53' E 004°16'0 0.0
2017-Dec-01 09:00N 51°53' E 004°16'0 0.0
2017-Dec-01 08:30N 51°53' E 004°16'0 0.0
2017-Dec-01 08:00N 51°53' E 004°16'0 0.0
2017-Dec-01 07:30N 51°53' E 004°16'0 0.0
2017-Dec-01 07:00N 51°53' E 004°16'0 0.0
2017-Dec-01 06:30N 51°53' E 004°16'0 0.0
2017-Dec-01 06:00N 51°53' E 004°16'0 0.0
2017-Dec-01 05:30N 51°53' E 004°16'0 0.0
2017-Dec-01 05:00N 51°53' E 004°16'0 0.0
2017-Dec-01 04:30N 51°53' E 004°16'0 0.0
2017-Dec-01 04:00N 51°53' E 004°16'0 0.0
2017-Dec-01 03:30N 51°53' E 004°16'0 0.0
2017-Dec-01 03:00N 51°53' E 004°16'0 0.0
2017-Dec-01 02:30N 51°53' E 004°16'0 0.0
2017-Dec-01 02:00N 51°53' E 004°16'0 0.0
2017-Dec-01 01:30N 51°53' E 004°16'0 1.0
2017-Dec-01 01:00N 51°53' E 004°17'1 2.8
2017-Dec-01 00:30N 51°53' E 004°19'0 0.0
2017-Dec-01 00:00N 51°53' E 004°19'0 0.0
2017-Nov-30 23:30N 51°53' E 004°19'0 0.0
2017-Nov-30 23:00N 51°53' E 004°19'0 0.0
2017-Nov-30 22:30N 51°53' E 004°19'0 0.0
2017-Nov-30 22:00N 51°53' E 004°19'  
Track history (hours):
 
Tides and Currents Weather Stations Pressure Air Temp Water Temp Dewpoint Dewpoint Depression Visibility Wind Speed Wind Dir Waves Ship Positions

Astra

Last reported at 2017-Dec-10 21:42 UTC. Time now 2017-Dec-13 13:18 UTC.
Position N 50°49' E 007°02'.

Length 110 m; draft 2.9 m.

Type: Tanker. MMSI: 244650752.

Date/timePositionNaut miles runAvg speedWind from/ knotsBaromVisibWave heightAir tempDewpointWater temp
2017-Dec-10 21:42N 50°49' E 007°02'2 4.6
2017-Dec-10 21:19N 50°50' E 006°59'2 3.9
2017-Dec-10 20:55N 50°51' E 007°00'2 4.7
2017-Dec-10 20:27N 50°53' E 007°03'2 3.2
2017-Dec-10 19:57N 50°54' E 007°01'2 4.0
2017-Dec-10 19:30N 50°55' E 006°59'2 4.9
2017-Dec-10 19:00N 50°57' E 006°58'10 3.7
2017-Dec-10 16:20N 51°06' E 006°53'2 4.8
2017-Dec-10 15:57N 51°08' E 006°51'2 3.1
2017-Dec-10 15:22N 51°09' E 006°50'1 4.2
2017-Dec-10 15:00N 51°09' E 006°48'2 4.6
2017-Dec-10 14:31N 51°11' E 006°47'2 4.5
2017-Dec-10 14:01N 51°11' E 006°44'2 4.6
2017-Dec-10 13:30N 51°14' E 006°44'2 3.1
2017-Dec-10 13:01N 51°14' E 006°46'2 4.4
2017-Dec-10 12:31N 51°15' E 006°44'2 3.6
2017-Dec-10 12:00N 51°17' E 006°43'2 4.8
2017-Dec-10 11:30N 51°19' E 006°44'3 4.7
2017-Dec-10 10:58N 51°21' E 006°41'1 2.9
2017-Dec-10 10:30N 51°22' E 006°40'2 4.7
2017-Dec-10 10:00N 51°23' E 006°44'2 4.5
2017-Dec-10 09:31N 51°25' E 006°44'2 4.4
2017-Dec-10 09:00N 51°27' E 006°43'2 4.5
2017-Dec-10 08:31N 51°29' E 006°41'2 4.6
2017-Dec-10 08:00N 51°30' E 006°43'3 5.1
2017-Dec-10 07:31N 51°32' E 006°41'2 4.8
2017-Dec-10 07:01N 51°35' E 006°41'2 4.8
2017-Dec-10 06:30N 51°34' E 006°37'2 5.0
2017-Dec-10 06:00N 51°36' E 006°36'2 4.9
2017-Dec-10 05:30N 51°39' E 006°36'2 4.6
2017-Dec-10 05:01N 51°39' E 006°33'14 4.6
2017-Dec-10 01:53N 51°49' E 006°16'2 5.5
2017-Dec-10 01:31N 51°50' E 006°13'3 5.1
2017-Dec-10 01:01N 51°51' E 006°09'3 5.6
2017-Dec-10 00:31N 51°52' E 006°04'3 5.9
2017-Dec-10 00:00N 51°53' E 005°60'2 4.4
2017-Dec-09 23:31N 51°52' E 005°57'3 4.8
2017-Dec-09 22:54N 51°51' E 005°52'3 5.8
2017-Dec-09 22:27N 51°52' E 005°49'6 6.1
2017-Dec-09 21:29N 51°54' E 005°39'11 5.0
2017-Dec-09 19:13N 51°57' E 005°22'2 7.6
2017-Dec-09 19:01N 51°58' E 005°20'0 0.8
2017-Dec-09 18:31N 51°58' E 005°19'4 7.0
2017-Dec-09 17:58N 51°60' E 005°14'4 7.6
2017-Dec-09 17:30N 52°01' E 005°08'4 7.7
2017-Dec-09 17:01N 52°04' E 005°05'4 7.2
2017-Dec-09 16:30N 52°08' E 005°03'4 6.8
2017-Dec-09 15:59N 52°11' E 004°60'4 7.7
2017-Dec-09 15:30N 52°14' E 005°01'4 7.6
2017-Dec-09 14:59N 52°18' E 005°01'4 7.3
2017-Dec-09 14:30N 52°21' E 004°58'3 6.3
2017-Dec-09 14:01N 52°23' E 004°54'4 7.1
2017-Dec-09 13:31N 52°25' E 004°49'1 2.9
2017-Dec-09 13:00N 52°25' E 004°47'0 0.1
2017-Dec-09 12:30N 52°25' E 004°47'0 0.0
2017-Dec-09 12:00N 52°25' E 004°47'0 0.0
2017-Dec-09 11:30N 52°25' E 004°47'0 0.0
2017-Dec-09 11:00N 52°25' E 004°47'0 0.0
2017-Dec-09 10:30N 52°25' E 004°47'0 0.0
2017-Dec-09 10:00N 52°25' E 004°47'0 0.0
2017-Dec-09 09:30N 52°25' E 004°47'0 0.0
2017-Dec-09 09:00N 52°25' E 004°47'0 0.0
2017-Dec-09 08:30N 52°25' E 004°47'0 0.0
2017-Dec-09 08:00N 52°25' E 004°47'0 0.0
2017-Dec-09 07:30N 52°25' E 004°47'0 0.0
2017-Dec-09 07:00N 52°25' E 004°47'0 0.0
2017-Dec-09 06:30N 52°25' E 004°47'0 0.0
2017-Dec-09 06:00N 52°25' E 004°47'0 0.0
2017-Dec-09 05:30N 52°25' E 004°47'0 0.0
2017-Dec-09 05:00N 52°25' E 004°47'0 0.0
2017-Dec-09 04:30N 52°25' E 004°47'0 0.0
2017-Dec-09 04:00N 52°25' E 004°47'0 0.0
2017-Dec-09 03:30N 52°25' E 004°47'0 0.0
2017-Dec-09 03:00N 52°25' E 004°47'0 0.0
2017-Dec-09 02:31N 52°25' E 004°47'0 0.0
2017-Dec-09 02:00N 52°25' E 004°47'0 0.0
2017-Dec-09 01:30N 52°25' E 004°47'0 0.0
2017-Dec-09 01:00N 52°25' E 004°47'0 0.1
2017-Dec-09 00:30N 52°25' E 004°47'2 4.4
2017-Dec-09 00:00N 52°24' E 004°51'0 0.3
2017-Dec-08 23:30N 52°24' E 004°51'0 0.0
2017-Dec-08 23:00N 52°24' E 004°51'0 0.0
2017-Dec-08 22:30N 52°24' E 004°51'0 0.0
2017-Dec-08 22:00N 52°24' E 004°51'0 0.0
2017-Dec-08 21:30N 52°24' E 004°51'0 0.0
2017-Dec-08 21:00N 52°24' E 004°51'0 0.0
2017-Dec-08 20:30N 52°24' E 004°51'0 0.0
2017-Dec-08 20:00N 52°24' E 004°51'0 0.0
2017-Dec-08 19:30N 52°24' E 004°51'0 0.0
2017-Dec-08 19:00N 52°24' E 004°51'0 0.0
2017-Dec-08 18:30N 52°24' E 004°51'0 0.0
2017-Dec-08 18:00N 52°24' E 004°51'0 0.0
2017-Dec-08 17:30N 52°24' E 004°51'0 0.0
2017-Dec-08 17:00N 52°24' E 004°51'0 0.0
2017-Dec-08 16:30N 52°24' E 004°51'0 0.0
2017-Dec-08 16:00N 52°24' E 004°51'0 0.0
2017-Dec-08 15:30N 52°24' E 004°51'0 0.0
2017-Dec-08 15:00N 52°24' E 004°51'0 0.0
2017-Dec-08 14:30N 52°24' E 004°51'0 0.0
2017-Dec-08 14:00N 52°24' E 004°51'0 0.0
2017-Dec-08 13:30N 52°24' E 004°51'0 0.0
2017-Dec-08 13:00N 52°24' E 004°51'0 0.0
2017-Dec-08 12:30N 52°24' E 004°51'0 0.0
2017-Dec-08 12:00N 52°24' E 004°51'0 0.0
2017-Dec-08 11:30N 52°24' E 004°51'0 0.0
2017-Dec-08 11:00N 52°24' E 004°51'0 0.0
2017-Dec-08 10:30N 52°24' E 004°51'0 0.0
2017-Dec-08 10:00N 52°24' E 004°51'0 0.0
2017-Dec-08 09:30N 52°24' E 004°51'3 6.1
2017-Dec-08 09:00N 52°26' E 004°46'1 2.6
2017-Dec-08 08:30N 52°25' E 004°48'0 0.0
2017-Dec-08 08:00N 52°25' E 004°48'0 0.0
2017-Dec-08 07:30N 52°25' E 004°48'0 0.0
2017-Dec-08 07:00N 52°25' E 004°48'0 0.0
2017-Dec-08 06:30N 52°25' E 004°48'0 0.0
2017-Dec-08 06:00N 52°25' E 004°48'0 0.0
2017-Dec-08 05:30N 52°25' E 004°48'0 0.0
2017-Dec-08 05:00N 52°25' E 004°48'0 0.0
2017-Dec-08 04:30N 52°25' E 004°48'0 0.0
2017-Dec-08 04:00N 52°25' E 004°48'0 0.0
2017-Dec-08 03:30N 52°25' E 004°48'0 0.0
2017-Dec-08 03:00N 52°25' E 004°48'0 0.0
2017-Dec-08 02:30N 52°25' E 004°48'0 0.0
2017-Dec-08 02:00N 52°25' E 004°48'0 0.0
2017-Dec-08 01:30N 52°25' E 004°48'0 0.0
2017-Dec-08 01:00N 52°25' E 004°48'0 0.0
2017-Dec-08 00:30N 52°25' E 004°48'0 0.0
2017-Dec-08 00:00N 52°25' E 004°48'1 2.1
2017-Dec-07 23:30N 52°24' E 004°46'0 0.0
2017-Dec-07 23:00N 52°24' E 004°46'0 0.0
2017-Dec-07 22:30N 52°24' E 004°46'0 0.0
2017-Dec-07 22:00N 52°24' E 004°46'0 0.0
2017-Dec-07 21:30N 52°24' E 004°46'0 0.0
2017-Dec-07 21:00N 52°24' E 004°46'0 0.0
2017-Dec-07 20:30N 52°24' E 004°46'0 0.0
2017-Dec-07 20:00N 52°24' E 004°46'0 0.0
2017-Dec-07 19:30N 52°24' E 004°46'0 0.0
2017-Dec-07 19:00N 52°24' E 004°46'0 0.0
2017-Dec-07 18:30N 52°24' E 004°46'0 0.0
2017-Dec-07 18:00N 52°24' E 004°46'0 0.0
2017-Dec-07 17:29N 52°24' E 004°46'0 0.0
2017-Dec-07 17:00N 52°24' E 004°46'0 0.0
2017-Dec-07 16:30N 52°24' E 004°46'0 0.0
2017-Dec-07 16:00N 52°24' E 004°46'2 3.6
2017-Dec-07 15:30N 52°25' E 004°48'3 6.8
2017-Dec-07 15:00N 52°24' E 004°53'0 0.2
2017-Dec-07 14:30N 52°24' E 004°53'3 5.6
2017-Dec-07 14:00N 52°23' E 004°57'4 8.2
2017-Dec-07 13:30N 52°19' E 005°01'4 8.2
2017-Dec-07 13:01N 52°15' E 005°01'4 8.4
2017-Dec-07 12:30N 52°11' E 004°60'4 7.8
2017-Dec-07 12:00N 52°08' E 005°03'4 7.8
2017-Dec-07 11:30N 52°04' E 005°05'4 8.3
2017-Dec-07 11:00N 52°01' E 005°09'4 8.3
2017-Dec-07 10:29N 51°59' E 005°16'2 5.0
2017-Dec-07 10:01N 51°58' E 005°19'6 4.2
2017-Dec-07 08:29N 51°54' E 005°27'1 2.2
2017-Dec-07 07:58N 51°53' E 005°29'611.0
2017-Dec-07 07:25N 51°54' E 005°39'410.3
2017-Dec-07 07:00N 51°53' E 005°45'5 8.9
2017-Dec-07 06:27N 51°52' E 005°53'4 8.1
2017-Dec-07 06:00N 51°52' E 005°59'4 8.5
2017-Dec-07 05:30N 51°51' E 006°06'510.7
2017-Dec-07 05:00N 51°50' E 006°14'12 9.2
2017-Dec-07 03:44N 51°42' E 006°28'310.1
2017-Dec-07 03:29N 51°40' E 006°30'4 7.8
2017-Dec-07 03:00N 51°38' E 006°36'4 7.2
2017-Dec-07 02:29N 51°35' E 006°39'4 9.0
2017-Dec-07 02:00N 51°31' E 006°43'3 7.0
2017-Dec-07 01:30N 51°28' E 006°43'5 9.8
2017-Dec-07 01:01N 51°23' E 006°44'4 6.0
2017-Dec-07 00:23N 51°19' E 006°44'4 9.7
2017-Dec-07 00:00N 51°15' E 006°44'3 5.4
2017-Dec-06 23:30N 51°13' E 006°44'4 8.2
2017-Dec-06 23:00N 51°09' E 006°47'11 7.7
2017-Dec-06 21:35N 51°01' E 006°58'3 8.6
2017-Dec-06 21:13N 50°57' E 006°59'210.4
2017-Dec-06 21:01N 50°55' E 006°58'  
2017-Dec-03 20:59N 49°19' E 008°27'3 5.3
2017-Dec-03 20:22N 49°22' E 008°30'2 5.6
2017-Dec-03 20:00N 49°24' E 008°30'3 5.5
2017-Dec-03 19:30N 49°26' E 008°30'3 5.0
2017-Dec-03 19:00N 49°27' E 008°26'2 4.2
2017-Dec-03 18:30N 49°29' E 008°27'3 5.5
2017-Dec-03 18:00N 49°32' E 008°26'3 5.9
2017-Dec-03 17:30N 49°35' E 008°25'84 4.1
2017-Dec-02 21:04N 50°43' E 007°08'0 5.6
2017-Dec-02 21:00N 50°43' E 007°08'3 5.1
2017-Dec-02 20:30N 50°46' E 007°06'3 5.1
2017-Dec-02 20:00N 50°47' E 007°02'3 4.9
2017-Dec-02 19:29N 50°49' E 007°01'2 3.8
2017-Dec-02 19:00N 50°51' E 006°59'3 4.9
2017-Dec-02 18:27N 50°52' E 007°02'2 3.0
2017-Dec-02 17:56N 50°54' E 007°01'2 4.6
2017-Dec-02 17:30N 50°55' E 006°58'3 5.0
2017-Dec-02 16:58N 50°58' E 006°59'3 4.7
2017-Dec-02 16:24N 51°00' E 006°58'9 4.1
2017-Dec-02 14:08N 51°08' E 006°51'1 5.2
2017-Dec-02 13:58N 51°09' E 006°51'1 2.8
2017-Dec-02 13:28N 51°09' E 006°49'2 3.3
2017-Dec-02 13:00N 51°10' E 006°48'2 4.4
2017-Dec-02 12:30N 51°11' E 006°45'2 4.9
2017-Dec-02 12:00N 51°13' E 006°43'2 3.5
2017-Dec-02 11:31N 51°14' E 006°46'2 4.2
2017-Dec-02 11:00N 51°15' E 006°44'2 3.9
2017-Dec-02 10:29N 51°17' E 006°43'2 5.0
2017-Dec-02 10:01N 51°19' E 006°44'3 5.1
2017-Dec-02 09:30N 51°21' E 006°40'1 2.9
2017-Dec-02 09:00N 51°22' E 006°41'3 5.0
2017-Dec-02 08:30N 51°23' E 006°44'2 4.8
2017-Dec-02 08:00N 51°26' E 006°43'2 4.7
2017-Dec-02 07:30N 51°28' E 006°43'2 3.6
2017-Dec-02 07:00N 51°29' E 006°41'2 3.8
2017-Dec-02 06:30N 51°31' E 006°43'2 4.7
2017-Dec-02 06:00N 51°33' E 006°41'2 3.7
2017-Dec-02 05:30N 51°35' E 006°39'2 3.8
2017-Dec-02 04:59N 51°35' E 006°36'3 5.6
2017-Dec-02 04:30N 51°38' E 006°35'2 3.8
2017-Dec-02 04:00N 51°40' E 006°35'3 5.3
2017-Dec-02 03:30N 51°40' E 006°30'11 4.8
2017-Dec-02 01:16N 51°48' E 006°19'1 5.8
2017-Dec-02 01:00N 51°49' E 006°17'3 5.7
2017-Dec-02 00:30N 51°50' E 006°13'3 5.6
2017-Dec-02 00:00N 51°51' E 006°09'3 5.7
2017-Dec-01 23:31N 51°52' E 006°04'3 5.9
2017-Dec-01 23:00N 51°53' E 005°60'2 4.3
2017-Dec-01 22:30N 51°52' E 005°57'4 5.1
2017-Dec-01 21:41N 51°52' E 005°50'1 6.4
2017-Dec-01 21:28N 51°53' E 005°48'3 6.6
2017-Dec-01 21:00N 51°53' E 005°43'3 6.5
2017-Dec-01 20:30N 51°54' E 005°38'4 6.5
2017-Dec-01 19:52N 51°54' E 005°31'2 6.5
2017-Dec-01 19:30N 51°53' E 005°27'3 6.4
2017-Dec-01 19:00N 51°51' E 005°24'3 6.4
2017-Dec-01 18:30N 51°48' E 005°21'3 5.5
2017-Dec-01 18:00N 51°49' E 005°17'5 6.4
2017-Dec-01 17:12N 51°49' E 005°08'1 6.2
2017-Dec-01 16:58N 51°49' E 005°06'3 6.1
2017-Dec-01 16:29N 51°49' E 005°02'3 7.1
2017-Dec-01 16:00N 51°50' E 004°56'4 7.5
2017-Dec-01 15:30N 51°49' E 004°50'4 7.8
2017-Dec-01 15:00N 51°49' E 004°44'4 7.6
2017-Dec-01 14:30N 51°48' E 004°38'4 8.3
2017-Dec-01 14:00N 51°50' E 004°32'5 9.4
2017-Dec-01 13:30N 51°51' E 004°24'4 8.0
2017-Dec-01 13:00N 51°53' E 004°19'2 4.2
2017-Dec-01 12:30N 51°53' E 004°16'0 0.0
2017-Dec-01 12:00N 51°53' E 004°16'0 0.0
2017-Dec-01 11:30N 51°53' E 004°16'0 0.0
2017-Dec-01 11:00N 51°53' E 004°16'0 0.0
2017-Dec-01 10:30N 51°53' E 004°16'0 0.0
2017-Dec-01 10:00N 51°53' E 004°16'0 0.0
2017-Dec-01 09:29N 51°53' E 004°16'0 0.0
2017-Dec-01 09:00N 51°53' E 004°16'0 0.0
2017-Dec-01 08:30N 51°53' E 004°16'0 0.0
2017-Dec-01 08:00N 51°53' E 004°16'0 0.0
2017-Dec-01 07:30N 51°53' E 004°16'0 0.0
2017-Dec-01 07:00N 51°53' E 004°16'0 0.0
2017-Dec-01 06:30N 51°53' E 004°16'0 0.0
2017-Dec-01 06:00N 51°53' E 004°16'0 0.0
2017-Dec-01 05:30N 51°53' E 004°16'0 0.0
2017-Dec-01 05:00N 51°53' E 004°16'0 0.0
2017-Dec-01 04:30N 51°53' E 004°16'0 0.0
2017-Dec-01 04:00N 51°53' E 004°16'0 0.0
2017-Dec-01 03:30N 51°53' E 004°16'0 0.0
2017-Dec-01 03:00N 51°53' E 004°16'0 0.0
2017-Dec-01 02:30N 51°53' E 004°16'0 0.0
2017-Dec-01 02:00N 51°53' E 004°16'0 0.0
2017-Dec-01 01:30N 51°53' E 004°16'0 1.0
2017-Dec-01 01:00N 51°53' E 004°17'1 2.8
2017-Dec-01 00:30N 51°53' E 004°19'0 0.0
2017-Dec-01 00:00N 51°53' E 004°19'0 0.0
2017-Nov-30 23:30N 51°53' E 004°19'0 0.0
2017-Nov-30 23:00N 51°53' E 004°19'0 0.0
2017-Nov-30 22:30N 51°53' E 004°19'0 0.0
2017-Nov-30 22:00N 51°53' E 004°19'  

Dump ship's entire track history